Time;durP1;ratioP1;P1;durP2;ratioP2;P2;SDS_P1;SDS_P2;PMS_P1;PMS_P2;Temp;Humidity;BMP_temperature;BMP_pressure;BME280_temperature;BME280_humidity;BME280_pressure;Samples;Min_cycle;Max_cycle;Signal;HPM_P1;HPM_P2
2022/06/10 00:01:15;;;;;;;12.23;7.38;;;23.00;78.20;;;;;;5023994;28;20432;-89
2022/06/10 00:03:41;;;;;;;10.32;8.05;;;23.00;78.90;;;;;;5025444;28;20122;-89
2022/06/10 00:06:09;;;;;;;9.02;7.43;;;22.90;79.40;;;;;;5008720;28;20088;-89
2022/06/10 00:08:42;;;;;;;11.57;7.47;;;22.90;79.80;;;;;;5057155;28;20037;-89
2022/06/10 00:11:10;;;;;;;9.10;7.50;;;22.90;80.00;;;;;;5037725;28;20052;-88
2022/06/10 00:13:39;;;;;;;8.13;7.10;;;22.80;80.40;;;;;;5023915;28;20041;-88
2022/06/10 00:16:05;;;;;;;10.90;8.15;;;22.70;79.90;;;;;;5021656;28;20432;-88
2022/06/10 00:18:33;;;;;;;12.43;7.53;;;22.70;78.90;;;;;;5046237;28;20034;-88
2022/06/10 00:21:02;;;;;;;18.00;8.35;;;22.70;78.10;;;;;;4998851;28;20089;-88
2022/06/10 00:23:28;;;;;;;9.60;7.57;;;22.70;78.00;;;;;;5013025;28;20451;-87
2022/06/10 00:25:54;;;;;;;12.15;8.02;;;22.70;78.10;;;;;;5040442;28;20033;-85
2022/06/10 00:28:20;;;;;;;11.35;8.07;;;22.70;79.10;;;;;;5024746;28;20036;-86
2022/06/10 00:30:46;;;;;;;9.27;7.60;;;22.60;79.40;;;;;;5026479;28;20072;-86
2022/06/10 00:33:13;;;;;;;17.60;8.52;;;22.60;79.40;;;;;;5024018;28;20139;-88
2022/06/10 00:35:39;;;;;;;12.40;8.02;;;22.60;79.80;;;;;;5037671;28;20038;-88
2022/06/10 00:38:06;;;;;;;13.18;8.15;;;22.60;79.60;;;;;;5007716;28;20109;-89
2022/06/10 00:40:37;;;;;;;9.15;7.55;;;22.50;79.40;;;;;;5027794;28;20047;-89
2022/06/10 00:43:03;;;;;;;12.90;8.45;;;22.50;79.50;;;;;;5010153;28;20037;-86
2022/06/10 00:45:54;;;;;;;14.38;8.32;;;22.50;79.40;;;;;;4997622;28;20035;-86
2022/06/10 00:48:48;;;;;;;14.35;8.57;;;22.50;79.50;;;;;;5020694;28;20037;-86
2022/06/10 00:51:54;;;;;;;11.18;8.18;;;22.40;79.20;;;;;;5005518;28;20033;-86
2022/06/10 00:54:35;;;;;;;12.18;8.32;;;22.30;79.60;;;;;;4998523;28;20045;-86
2022/06/10 00:57:19;;;;;;;12.75;8.80;;;22.20;79.40;;;;;;5005087;28;20038;-88
2022/06/10 00:59:54;;;;;;;11.38;8.70;;;22.20;79.40;;;;;;4968544;28;20836;-87
2022/06/10 01:02:23;;;;;;;14.73;8.85;;;22.20;79.40;;;;;;4989483;28;20067;-87
2022/06/10 01:04:51;;;;;;;12.90;8.95;;;22.20;79.20;;;;;;5021458;28;20560;-85
2022/06/10 01:07:23;;;;;;;15.10;8.68;;;22.30;79.10;;;;;;4988689;28;20083;-86
2022/06/10 01:09:50;;;;;;;16.95;8.43;;;22.10;79.80;;;;;;4989460;28;20034;-86
2022/06/10 01:12:29;;;;;;;11.35;8.27;;;22.20;79.10;;;;;;4988816;28;20040;-87
2022/06/10 01:15:24;;;;;;;14.55;8.68;;;22.10;79.30;;;;;;4973249;28;20038;-88
2022/06/10 01:17:56;;;;;;;16.88;8.80;;;22.10;78.80;;;;;;4974087;28;20042;-86
2022/06/10 01:20:39;;;;;;;17.58;8.35;;;22.20;78.70;;;;;;4989160;28;20120;-84
2022/06/10 01:23:41;;;;;;;13.25;8.32;;;22.20;78.40;;;;;;4990122;28;20105;-85
2022/06/10 01:30:11;;;;;;;12.38;7.63;;;22.30;78.40;;;;;;5005379;28;20068;-84
2022/06/10 01:32:54;;;;;;;;;;;22.30;78.50;;;;;;5019561;28;20061;-84
2022/06/10 01:35:29;;;;;;;11.50;8.30;;;22.30;78.50;;;;;;5052591;28;20442;-84
2022/06/10 01:38:19;;;;;;;13.77;8.10;;;22.30;78.40;;;;;;5020489;28;20045;-84
2022/06/10 01:41:26;;;;;;;15.45;8.75;;;22.30;79.30;;;;;;5022389;28;20181;-84
2022/06/10 01:44:15;;;;;;;14.65;8.98;;;22.30;79.40;;;;;;4970603;28;20041;-84
2022/06/10 01:46:48;;;;;;;13.30;8.98;;;22.30;80.00;;;;;;5019817;28;20149;-84
2022/06/10 01:49:31;;;;;;;12.98;8.48;;;22.20;80.00;;;;;;5033244;28;20042;-85
2022/06/10 01:52:04;;;;;;;13.20;9.88;;;22.30;80.20;;;;;;5019053;28;20041;-85
2022/06/10 01:54:40;;;;;;;13.02;8.93;;;22.20;80.80;;;;;;5002860;28;20042;-92
2022/06/10 01:57:13;;;;;;;12.77;9.10;;;22.20;81.30;;;;;;5017424;28;20072;-91
2022/06/10 01:59:43;;;;;;;10.75;8.80;;;22.20;81.60;;;;;;5005467;28;20559;-89
2022/06/10 02:02:16;;;;;;;13.10;8.93;;;22.20;81.80;;;;;;5006890;28;20045;-90
2022/06/10 02:05:21;;;;;;;16.00;8.77;;;22.20;82.10;;;;;;4990226;28;20034;-88
2022/06/10 02:08:07;;;;;;;9.57;8.40;;;22.10;82.30;;;;;;5001775;28;20038;-88
2022/06/10 02:10:51;;;;;;;12.63;8.60;;;22.10;82.60;;;;;;4987603;28;20069;-88
2022/06/10 02:13:25;;;;;;;8.70;7.80;;;22.00;82.80;;;;;;5021987;28;20141;-88
2022/06/10 02:16:01;;;;;;;13.25;8.85;;;22.10;83.00;;;;;;5017455;28;20276;-86
2022/06/10 02:18:48;;;;;;;11.55;7.85;;;22.00;84.10;;;;;;5034649;28;20065;-88
2022/06/10 02:21:26;;;;;;;8.35;7.55;;;22.00;83.30;;;;;;4988563;28;20030;-87
2022/06/10 02:24:08;;;;;;;12.25;7.97;;;22.10;83.50;;;;;;5000225;28;20188;-88
2022/06/10 02:26:36;;;;;;;10.18;8.13;;;22.20;83.40;;;;;;5021315;28;20109;-89
2022/06/10 02:29:06;;;;;;;12.00;8.32;;;22.30;83.10;;;;;;5014678;28;20513;-88
2022/06/10 02:31:38;;;;;;;9.43;7.78;;;22.30;83.20;;;;;;5037813;28;20400;-88
2022/06/10 02:34:05;;;;;;;14.25;8.38;;;22.30;83.40;;;;;;4992411;28;20505;-87
2022/06/10 02:36:42;;;;;;;8.70;7.53;;;22.40;83.10;;;;;;5020541;28;20166;-88
2022/06/10 02:39:37;;;;;;;8.43;7.40;;;22.60;83.10;;;;;;5033283;28;20421;-89
2022/06/10 02:42:14;;;;;;;10.68;8.55;;;22.70;82.20;;;;;;5006732;28;20042;-87
2022/06/10 02:45:06;;;;;;;9.73;8.50;;;22.60;81.60;;;;;;5005458;28;20401;-87
2022/06/10 02:48:02;;;;;;;10.90;7.93;;;22.70;81.80;;;;;;4967200;28;20034;-88
2022/06/10 02:50:28;;;;;;;8.73;7.85;;;22.80;81.80;;;;;;4964894;28;20097;-88
2022/06/10 02:52:55;;;;;;;11.02;8.85;;;22.90;81.30;;;;;;5019644;28;20492;-89
2022/06/10 02:55:25;;;;;;;11.95;8.60;;;23.00;81.30;;;;;;5004306;28;20152;-89
2022/06/10 03:01:11;;;;;;;11.50;8.85;;;23.00;81.00;;;;;;4988644;28;20034;-88
2022/06/10 03:04:04;;;;;;;9.23;8.07;;;22.90;81.10;;;;;;4999524;28;20082;-89
2022/06/10 03:06:45;;;;;;;14.15;9.65;;;22.90;81.40;;;;;;5007412;28;20030;-89
2022/06/10 03:09:20;;;;;;;9.88;8.43;;;22.90;81.60;;;;;;5021087;28;20026;-89
2022/06/10 03:12:06;;;;;;;12.07;8.93;;;22.90;81.50;;;;;;5037061;28;20038;-88
2022/06/10 03:14:41;;;;;;;10.23;8.52;;;22.90;81.30;;;;;;5017277;28;20091;-90
2022/06/10 03:17:33;;;;;;;12.25;9.18;;;22.80;81.40;;;;;;5010353;28;20026;-89
2022/06/10 03:20:14;;;;;;;10.15;8.75;;;22.80;81.80;;;;;;5017279;28;20041;-87
2022/06/10 03:22:58;;;;;;;10.18;8.40;;;23.00;81.30;;;;;;5063509;28;20034;-86
2022/06/10 03:25:45;;;;;;;10.90;8.10;;;23.10;80.80;;;;;;5046324;28;20033;-88
2022/06/10 03:28:39;;;;;;;8.60;7.70;;;23.20;81.20;;;;;;4976726;28;20064;-88
2022/06/10 03:31:21;;;;;;;8.85;7.95;;;23.30;80.70;;;;;;5048814;28;20041;-94
2022/06/10 03:33:53;;;;;;;14.02;7.50;;;23.50;80.20;;;;;;4995980;28;20081;-93
2022/06/10 03:36:25;;;;;;;11.95;8.15;;;23.70;79.70;;;;;;5016537;28;20034;-92
2022/06/10 03:38:53;;;;;;;8.02;7.20;;;23.80;79.30;;;;;;4977667;28;20034;-92
2022/06/10 03:41:56;;;;;;;8.65;7.18;;;23.90;79.30;;;;;;5022405;28;20056;-83
2022/06/10 03:44:24;;;;;;;6.70;5.85;;;24.10;77.80;;;;;;5031434;28;20061;-92
2022/06/10 03:46:52;;;;;;;6.82;5.82;;;24.20;77.10;;;;;;5050658;28;20045;-91
2022/06/10 03:49:23;;;;;;;6.30;5.70;;;24.40;76.60;;;;;;5017089;28;20042;-87
2022/06/10 03:51:50;;;;;;;6.50;5.72;;;24.60;75.80;;;;;;5024527;28;20041;-87
2022/06/10 03:54:18;;;;;;;6.75;5.47;;;24.80;75.90;;;;;;5060975;28;20045;-88
2022/06/10 03:56:46;;;;;;;6.25;5.72;;;24.90;75.30;;;;;;5023924;28;20041;-89
2022/06/10 03:59:12;;;;;;;6.78;6.10;;;25.00;75.20;;;;;;5026382;28;20044;-89
2022/06/10 04:01:38;;;;;;;6.28;5.60;;;25.20;74.70;;;;;;5012883;28;20064;-88
2022/06/10 04:04:05;;;;;;;8.70;6.40;;;25.20;74.20;;;;;;5023982;28;20509;-87
2022/06/10 04:06:31;;;;;;;6.18;5.68;;;25.30;73.90;;;;;;5027364;28;20052;-86
2022/06/10 04:08:57;;;;;;;7.35;5.10;;;25.50;73.90;;;;;;5025066;28;20041;-86
2022/06/10 04:11:23;;;;;;;6.47;5.82;;;25.70;73.50;;;;;;5022578;28;20039;-87
2022/06/10 04:13:49;;;;;;;8.98;5.35;;;25.80;73.10;;;;;;5024287;28;20128;-86
2022/06/10 04:16:15;;;;;;;8.23;6.18;;;26.00;72.70;;;;;;5023359;28;20339;-89
2022/06/10 04:18:41;;;;;;;6.63;6.00;;;26.00;72.40;;;;;;5009863;28;20087;-87
2022/06/10 04:21:07;;;;;;;7.63;6.13;;;26.10;71.90;;;;;;5026005;28;20042;-89
2022/06/10 04:23:34;;;;;;;8.30;5.43;;;26.20;71.40;;;;;;5040525;28;20034;-88
2022/06/10 04:26:00;;;;;;;5.57;5.10;;;26.20;71.10;;;;;;5008424;28;20034;-86
2022/06/10 04:28:26;;;;;;;5.85;5.38;;;26.30;70.90;;;;;;5041472;28;20046;-87
2022/06/10 04:30:52;;;;;;;6.13;5.60;;;26.50;71.00;;;;;;5036891;28;20041;-85
2022/06/10 04:33:19;;;;;;;7.03;5.72;;;26.60;70.10;;;;;;5008016;28;20084;-85
2022/06/10 04:35:48;;;;;;;7.03;6.43;;;26.60;70.00;;;;;;5023389;28;20041;-89
2022/06/10 04:38:17;;;;;;;5.35;4.95;;;26.80;69.90;;;;;;5005507;28;20025;-91
2022/06/10 04:40:44;;;;;;;5.18;4.78;;;26.80;69.50;;;;;;5036773;28;20037;-86
2022/06/10 04:43:10;;;;;;;6.30;5.70;;;27.00;69.80;;;;;;5025960;28;20495;-96
2022/06/10 04:45:41;;;;;;;5.95;5.50;;;27.10;69.40;;;;;;5011697;28;20025;-87
2022/06/10 04:48:07;;;;;;;6.00;5.50;;;27.20;68.90;;;;;;5012414;28;20520;-85
2022/06/10 04:50:33;;;;;;;6.82;6.18;;;27.40;68.70;;;;;;5057426;28;20033;-83
2022/06/10 04:52:59;;;;;;;6.65;6.03;;;27.40;68.00;;;;;;4993468;28;20047;-82
2022/06/10 04:55:27;;;;;;;7.82;6.57;;;27.30;67.20;;;;;;5043497;28;20527;-88
2022/06/10 04:57:54;;;;;;;8.18;6.47;;;27.30;67.40;;;;;;5036506;28;20083;-88
2022/06/10 05:00:25;;;;;;;7.13;6.13;;;27.10;67.60;;;;;;5021302;28;20420;-87
2022/06/10 05:02:51;;;;;;;7.00;6.40;;;27.30;67.60;;;;;;5025553;28;20034;-87
2022/06/10 05:05:17;;;;;;;6.40;5.90;;;27.40;67.10;;;;;;4992906;28;20030;-87
2022/06/10 05:07:43;;;;;;;7.35;6.35;;;27.70;67.20;;;;;;5009486;28;20034;-87
2022/06/10 05:10:12;;;;;;;6.75;6.25;;;27.80;66.20;;;;;;5051762;28;20040;-87
2022/06/10 05:12:38;;;;;;;6.45;5.90;;;28.00;66.60;;;;;;5022260;28;20041;-87
2022/06/10 05:15:04;;;;;;;6.63;6.13;;;28.20;64.80;;;;;;5007836;28;20075;-87
2022/06/10 05:17:30;;;;;;;7.80;5.93;;;28.20;64.60;;;;;;5024255;28;20405;-85
2022/06/10 05:19:56;;;;;;;6.82;6.32;;;28.40;64.80;;;;;;5038685;28;20025;-86
2022/06/10 05:22:22;;;;;;;5.85;5.35;;;28.50;64.30;;;;;;5023823;28;20136;-86
2022/06/10 05:24:48;;;;;;;7.10;6.10;;;28.60;65.70;;;;;;5024159;28;20033;-86
2022/06/10 05:27:14;;;;;;;6.68;6.07;;;28.70;62.70;;;;;;5024149;28;20152;-86
2022/06/10 05:29:40;;;;;;;7.90;6.93;;;28.70;63.20;;;;;;5006733;28;20428;-85
2022/06/10 05:32:07;;;;;;;6.60;6.00;;;28.70;62.60;;;;;;5036539;28;20045;-87
2022/06/10 05:34:44;;;;;;;6.28;5.70;;;28.80;62.60;;;;;;5024366;28;20053;-87
2022/06/10 05:37:20;;;;;;;6.43;5.93;;;28.80;63.10;;;;;;5008719;28;20506;-87
2022/06/10 05:39:47;;;;;;;7.30;6.63;;;28.90;62.40;;;;;;5022512;28;20091;-87
2022/06/10 05:42:13;;;;;;;6.60;6.00;;;28.80;62.10;;;;;;5006799;28;20587;-87
2022/06/10 05:44:42;;;;;;;9.07;6.43;;;28.80;62.30;;;;;;5052315;28;20034;-87
2022/06/10 05:47:10;;;;;;;6.85;6.35;;;28.60;62.80;;;;;;5019904;28;20107;-87
2022/06/10 05:49:40;;;;;;;7.00;6.18;;;28.80;63.10;;;;;;5032400;28;20512;-87
2022/06/10 05:52:10;;;;;;;7.07;6.43;;;28.80;62.20;;;;;;5017824;28;20042;-86
2022/06/10 05:54:42;;;;;;;6.50;5.70;;;29.00;61.60;;;;;;5040503;28;20099;-87
2022/06/10 05:57:09;;;;;;;6.15;5.65;;;29.30;62.90;;;;;;5037342;28;20044;-88
2022/06/10 05:59:35;;;;;;;8.90;5.90;;;29.50;61.70;;;;;;5053281;28;20136;-85
2022/06/10 06:02:05;;;;;;;7.57;6.03;;;29.70;60.80;;;;;;5046500;28;20061;-83
2022/06/10 06:04:31;;;;;;;7.03;6.43;;;29.80;60.60;;;;;;5023026;28;20577;-87
2022/06/10 06:06:58;;;;;;;7.45;6.75;;;29.90;60.30;;;;;;4993412;28;20041;-88
2022/06/10 06:09:26;;;;;;;6.05;5.55;;;29.90;59.80;;;;;;5025960;28;20037;-87
2022/06/10 06:11:54;;;;;;;6.70;6.13;;;29.90;60.10;;;;;;5052238;28;20104;-90
2022/06/10 06:14:21;;;;;;;6.68;6.18;;;29.90;59.40;;;;;;5016216;28;20030;-87
2022/06/10 06:16:53;;;;;;;6.97;6.30;;;29.90;59.60;;;;;;5021951;28;20128;-88
2022/06/10 06:19:19;;;;;;;7.18;6.47;;;30.00;59.50;;;;;;5006537;28;20034;-86
2022/06/10 06:21:46;;;;;;;9.90;5.68;;;30.00;59.20;;;;;;4998326;28;20383;-89
2022/06/10 06:24:12;;;;;;;7.07;6.05;;;30.00;59.40;;;;;;5042017;28;20037;-89
2022/06/10 06:26:38;;;;;;;7.07;6.47;;;30.00;59.40;;;;;;5038036;28;20064;-89
2022/06/10 06:29:04;;;;;;;7.75;7.07;;;29.90;58.70;;;;;;5012760;28;20037;-89
2022/06/10 06:31:30;;;;;;;7.25;6.70;;;29.70;58.90;;;;;;4997274;28;20034;-89
2022/06/10 06:33:56;;;;;;;10.35;6.95;;;29.60;59.20;;;;;;5023854;28;20042;-90
2022/06/10 06:36:25;;;;;;;7.60;6.80;;;29.60;59.50;;;;;;5039188;28;20062;-88
2022/06/10 06:38:51;;;;;;;7.60;6.70;;;29.70;59.40;;;;;;5052498;28;20562;-82
2022/06/10 06:41:19;;;;;;;7.03;5.30;;;29.80;59.20;;;;;;5027754;28;20160;-81
2022/06/10 06:43:45;;;;;;;8.77;4.97;;;29.90;60.00;;;;;;5022743;28;20034;-83
2022/06/10 06:46:14;;;;;;;7.65;6.95;;;30.00;60.20;;;;;;5022945;28;20044;-82
2022/06/10 06:48:41;;;;;;;7.50;5.85;;;30.00;59.30;;;;;;5025434;28;20613;-81
2022/06/10 06:51:07;;;;;;;6.85;5.30;;;29.90;59.10;;;;;;5024018;28;20137;-82
2022/06/10 06:53:33;;;;;;;8.38;5.78;;;29.80;59.80;;;;;;5022387;28;20072;-81
2022/06/10 06:56:01;;;;;;;6.53;6.00;;;29.70;59.60;;;;;;5024760;28;20028;-80
2022/06/10 06:58:27;;;;;;;8.93;5.82;;;29.60;59.80;;;;;;5021297;28;20057;-81
2022/06/10 07:00:53;;;;;;;5.65;5.15;;;29.50;59.80;;;;;;5057253;28;20061;-79
2022/06/10 07:03:20;;;;;;;6.80;6.22;;;29.50;60.00;;;;;;5023310;28;20509;-79
2022/06/10 07:05:47;;;;;;;6.05;5.47;;;29.40;59.80;;;;;;5024387;28;20409;-78
2022/06/10 07:08:13;;;;;;;6.60;6.00;;;29.40;60.70;;;;;;5022231;28;20032;-80
2022/06/10 07:10:39;;;;;;;7.28;5.78;;;29.60;60.20;;;;;;5009995;28;20033;-79
2022/06/10 07:13:05;;;;;;;9.93;6.78;;;29.60;60.60;;;;;;5009859;28;20033;-81
2022/06/10 07:15:31;;;;;;;5.78;5.28;;;29.50;60.00;;;;;;5022726;28;20094;-80
2022/06/10 07:17:59;;;;;;;8.05;6.20;;;29.50;60.80;;;;;;5020822;28;20132;-80
2022/06/10 07:20:28;;;;;;;8.27;5.78;;;29.40;59.90;;;;;;5009053;28;20029;-80
2022/06/10 07:22:54;;;;;;;8.30;7.57;;;29.50;61.30;;;;;;5037982;28;20044;-81
2022/06/10 07:25:21;;;;;;;7.85;7.15;;;29.30;59.00;;;;;;5021596;28;20034;-80
2022/06/10 07:27:48;;;;;;;8.77;6.20;;;29.30;60.20;;;;;;5055580;28;20046;-80
2022/06/10 07:30:16;;;;;;;6.97;6.47;;;29.20;61.20;;;;;;5019560;28;20037;-82
2022/06/10 07:32:43;;;;;;;9.90;6.30;;;29.30;60.60;;;;;;5008502;28;20033;-82
2022/06/10 07:35:10;;;;;;;7.97;6.10;;;29.30;61.70;;;;;;5027282;28;20060;-80
2022/06/10 07:37:37;;;;;;;9.02;6.38;;;29.30;61.40;;;;;;5022831;28;20413;-82
2022/06/10 07:40:04;;;;;;;8.40;6.35;;;29.30;61.90;;;;;;5055398;28;20551;-82
2022/06/10 07:42:29;;;;;;;7.28;6.70;;;29.40;61.80;;;;;;5022075;28;20025;-83
2022/06/10 07:44:55;;;;;;;8.68;7.18;;;29.30;60.40;;;;;;5023965;28;20037;-83
2022/06/10 07:47:22;;;;;;;9.15;7.85;;;29.00;60.20;;;;;;5021329;28;20033;-81
2022/06/10 07:49:48;;;;;;;8.27;7.13;;;28.90;59.70;;;;;;5022058;28;20030;-82
2022/06/10 07:52:15;;;;;;;8.00;7.30;;;28.70;60.00;;;;;;5019911;28;20030;-82
2022/06/10 07:54:41;;;;;;;7.72;6.20;;;28.60;60.40;;;;;;5008757;28;20091;-81
2022/06/10 07:57:11;;;;;;;9.13;6.18;;;28.80;62.40;;;;;;5026224;28;20470;-81
2022/06/10 07:59:40;;;;;;;8.13;5.85;;;28.90;62.80;;;;;;5022090;28;20450;-80
2022/06/10 08:02:06;;;;;;;8.52;6.28;;;28.90;62.60;;;;;;5021259;28;20042;-82
2022/06/10 08:04:32;;;;;;;7.13;6.25;;;29.00;61.60;;;;;;5025559;28;20188;-82
2022/06/10 08:06:59;;;;;;;8.63;7.68;;;28.90;61.30;;;;;;5020861;28;20041;-80
2022/06/10 08:09:24;;;;;;;6.85;6.22;;;28.90;59.60;;;;;;5022079;28;20119;-81
2022/06/10 08:11:51;;;;;;;6.93;6.05;;;28.90;60.80;;;;;;5020376;28;20104;-80
2022/06/10 08:14:18;;;;;;;8.20;5.80;;;28.90;61.80;;;;;;5023631;28;20068;-81
2022/06/10 08:16:44;;;;;;;6.15;5.72;;;28.90;62.00;;;;;;5021571;28;20042;-79
2022/06/10 08:19:10;;;;;;;7.78;5.32;;;28.90;61.40;;;;;;5038204;28;20042;-80
2022/06/10 08:24:20;;;;;;;6.40;5.90;;;28.80;57.90;;;;;;5021700;28;20033;-80
2022/06/10 08:26:48;;;;;;;5.85;5.45;;;28.70;57.90;;;;;;5009604;28;20147;-80
2022/06/10 08:29:14;;;;;;;6.57;5.63;;;28.70;56.60;;;;;;5020300;28;20103;-80
2022/06/10 08:31:40;;;;;;;5.93;5.47;;;28.70;58.30;;;;;;5054340;28;20033;-79
2022/06/10 08:34:06;;;;;;;5.70;5.30;;;28.60;56.90;;;;;;5022525;28;20042;-79
2022/06/10 08:36:33;;;;;;;6.28;5.68;;;28.60;56.60;;;;;;5037064;28;20394;-78
2022/06/10 08:39:00;;;;;;;6.40;5.07;;;28.60;56.60;;;;;;5021519;28;20812;-79
2022/06/10 08:41:46;;;;;;;6.47;5.78;;;28.60;59.20;;;;;;5021813;28;20037;-78
2022/06/10 08:44:21;;;;;;;5.38;4.97;;;28.50;56.10;;;;;;5021174;28;20052;-78
2022/06/10 08:47:05;;;;;;;5.78;5.28;;;28.40;56.50;;;;;;5020931;28;20033;-79
2022/06/10 08:50:12;;;;;;;5.80;4.72;;;28.40;56.20;;;;;;5021203;28;20038;-78
2022/06/10 08:52:50;;;;;;;4.97;4.45;;;28.40;56.60;;;;;;5021169;28;20060;-77
2022/06/10 08:55:49;;;;;;;6.30;4.60;;;28.30;55.00;;;;;;5021777;28;20037;-78
2022/06/10 08:58:24;;;;;;;5.70;4.93;;;28.30;54.00;;;;;;5021884;28;20241;-78
2022/06/10 09:00:52;;;;;;;5.35;4.95;;;28.20;54.60;;;;;;5020490;28;20038;-78
2022/06/10 09:03:35;;;;;;;5.13;4.72;;;28.20;54.20;;;;;;5019915;28;20041;-77
2022/06/10 09:06:05;;;;;;;5.57;4.65;;;28.20;54.20;;;;;;5020365;28;20073;-78
2022/06/10 09:08:50;;;;;;;6.10;4.20;;;28.20;54.80;;;;;;5019981;28;20030;-79
2022/06/10 09:11:30;;;;;;;4.82;4.43;;;28.20;54.20;;;;;;5019004;28;20041;-80
2022/06/10 09:14:14;;;;;;;5.38;4.88;;;28.10;53.90;;;;;;5019587;28;20059;-78
2022/06/10 09:17:09;;;;;;;5.25;4.75;;;28.10;54.60;;;;;;5023896;28;20030;-77
2022/06/10 09:19:51;;;;;;;9.27;4.50;;;28.10;54.90;;;;;;5017023;28;20112;-79
2022/06/10 09:22:23;;;;;;;5.70;4.78;;;28.10;54.10;;;;;;5036521;28;20033;-79
2022/06/10 09:25:01;;;;;;;5.63;5.13;;;28.00;54.40;;;;;;5024223;28;20030;-78
2022/06/10 09:27:30;;;;;;;4.90;4.50;;;28.00;54.10;;;;;;5018951;28;20076;-78
2022/06/10 09:29:57;;;;;;;4.80;4.40;;;28.00;53.90;;;;;;5018971;28;20038;-79
2022/06/10 09:32:23;;;;;;;5.82;4.80;;;27.90;53.40;;;;;;5054558;28;20124;-78
2022/06/10 09:35:12;;;;;;;5.10;4.75;;;27.80;52.90;;;;;;5021495;28;20140;-78
2022/06/10 09:37:56;;;;;;;6.45;5.10;;;27.90;55.60;;;;;;5018108;28;20037;-78
2022/06/10 09:40:38;;;;;;;5.10;4.65;;;27.90;55.60;;;;;;5018903;28;20160;-80
2022/06/10 09:43:29;;;;;;;4.88;4.40;;;27.90;54.30;;;;;;5020384;28;20049;-79
2022/06/10 09:46:22;;;;;;;12.88;5.18;;;27.80;54.10;;;;;;5019892;28;20535;-78
2022/06/10 09:49:16;;;;;;;4.72;4.30;;;27.80;53.30;;;;;;5021312;28;20125;-78
2022/06/10 09:51:54;;;;;;;5.10;4.70;;;27.80;54.10;;;;;;5016645;28;20049;-78
2022/06/10 09:54:58;;;;;;;5.53;4.70;;;27.70;54.00;;;;;;5019184;28;20049;-77
2022/06/10 09:57:25;;;;;;;6.82;4.53;;;27.70;53.80;;;;;;5020441;28;20061;-78
2022/06/10 10:00:10;;;;;;;5.50;4.00;;;27.70;53.20;;;;;;5019090;28;20077;-80
2022/06/10 10:02:58;;;;;;;4.35;4.00;;;27.70;53.60;;;;;;5023349;28;20044;-79
2022/06/10 10:05:50;;;;;;;5.30;4.05;;;27.70;51.90;;;;;;5020572;28;20090;-80
2022/06/10 10:08:17;;;;;;;4.90;4.50;;;27.60;51.50;;;;;;5014073;28;20132;-78
2022/06/10 10:11:14;;;;;;;5.00;4.50;;;27.60;52.90;;;;;;5018598;28;20038;-79
2022/06/10 10:14:01;;;;;;;6.18;4.45;;;27.60;53.30;;;;;;4982572;28;20038;-79
2022/06/10 10:16:57;;;;;;;4.38;3.80;;;27.70;53.70;;;;;;4987142;28;20519;-78
2022/06/10 10:19:53;;;;;;;5.53;4.30;;;27.60;52.70;;;;;;4987533;28;20034;-80
2022/06/10 10:22:28;;;;;;;;;;;27.60;53.80;;;;;;4967269;28;20031;-80
2022/06/10 10:24:54;;;;;;;6.45;4.25;;;27.60;53.10;;;;;;5002774;28;20727;-79
2022/06/10 10:27:32;;;;;;;6.70;4.30;;;27.60;53.50;;;;;;4987797;28;20037;-83
2022/06/10 10:30:20;;;;;;;5.95;3.97;;;27.60;52.50;;;;;;4987335;28;20034;-79
2022/06/10 10:33:05;;;;;;;5.80;4.65;;;27.60;52.20;;;;;;4986701;28;20038;-78
2022/06/10 10:35:36;;;;;;;6.40;4.60;;;27.50;52.50;;;;;;4986920;28;20041;-78
2022/06/10 10:38:06;;;;;;;6.57;4.50;;;27.50;53.20;;;;;;4987356;28;20640;-78
2022/06/10 10:40:42;;;;;;;5.05;4.55;;;27.50;52.20;;;;;;4986586;28;20041;-78
2022/06/10 10:43:25;;;;;;;8.82;4.70;;;27.50;53.90;;;;;;4986645;28;20070;-78
2022/06/10 10:46:00;;;;;;;4.93;4.10;;;27.50;52.70;;;;;;4986555;28;20086;-77
2022/06/10 10:48:28;;;;;;;;;;;27.50;53.30;;;;;;4987053;28;20061;-85
2022/06/10 10:51:02;;;;;;;4.72;4.32;;;27.40;53.00;;;;;;5002883;28;19956;-86
2022/06/10 10:53:39;;;;;;;5.28;4.28;;;27.40;53.30;;;;;;5039416;28;20064;-81
2022/06/10 10:56:08;;;;;;;5.18;4.15;;;27.50;54.30;;;;;;5011141;28;20052;-81
2022/06/10 10:58:38;;;;;;;5.28;4.80;;;27.50;54.60;;;;;;5023124;28;20034;-82
2022/06/10 11:01:43;;;;;;;4.75;4.35;;;27.50;55.70;;;;;;5040608;28;20033;-84
2022/06/10 11:03:56;;;;;;;5.28;4.28;;;27.50;53.80;;;;;;5022440;28;20033;-78
2022/06/10 11:06:30;;;;;;;5.05;4.47;;;27.50;53.90;;;;;;5023253;28;20084;-83
2022/06/10 11:08:59;;;;;;;8.23;4.63;;;27.50;53.50;;;;;;5038294;28;20053;-80
2022/06/10 11:11:32;;;;;;;7.15;4.80;;;27.40;53.80;;;;;;5022398;28;20042;-80
2022/06/10 11:14:02;;;;;;;9.02;5.68;;;27.40;55.30;;;;;;5021636;28;20451;-83
2022/06/10 11:16:31;;;;;;;5.90;5.30;;;27.50;54.30;;;;;;5021522;28;20030;-86
2022/06/10 11:19:00;;;;;;;6.95;5.90;;;27.40;53.60;;;;;;5035979;28;20064;-80
2022/06/10 11:21:27;;;;;;;7.35;4.45;;;27.40;54.70;;;;;;5036534;28;20398;-81
2022/06/10 11:23:56;;;;;;;5.22;4.72;;;27.40;53.70;;;;;;5023714;28;20121;-80
2022/06/10 11:26:25;;;;;;;6.32;4.40;;;27.40;54.60;;;;;;5055204;28;20033;-81
2022/06/10 11:29:08;;;;;;;7.00;4.68;;;27.40;54.40;;;;;;5021490;28;20034;-82
2022/06/10 11:31:52;;;;;;;8.88;4.97;;;27.40;53.60;;;;;;5023670;28;20040;-83
2022/06/10 11:34:39;;;;;;;4.95;4.47;;;27.40;54.90;;;;;;5019998;28;20912;-83
2022/06/10 11:37:36;;;;;;;4.90;4.47;;;27.40;54.80;;;;;;5055959;28;20030;-83
2022/06/10 11:40:08;;;;;;;5.20;4.72;;;27.30;54.10;;;;;;5042675;28;20068;-81
2022/06/10 11:42:45;;;;;;;10.15;4.18;;;27.30;55.50;;;;;;5021609;28;20033;-81
2022/06/10 11:45:18;;;;;;;6.30;4.50;;;27.30;54.00;;;;;;5022061;28;20438;-82
2022/06/10 11:48:07;;;;;;;4.97;4.25;;;27.30;53.40;;;;;;5039464;28;20041;-82
2022/06/10 11:51:03;;;;;;;4.60;4.20;;;27.20;53.60;;;;;;5019676;28;20311;-81
2022/06/10 11:53:48;;;;;;;6.22;4.35;;;27.20;53.30;;;;;;5042362;28;20120;-80
2022/06/10 11:59:54;;;;;;;5.97;4.25;;;27.10;52.30;;;;;;5003941;28;20037;-80
2022/06/10 12:02:35;;;;;;;3.80;3.50;;;27.10;52.90;;;;;;5024268;28;20124;-80
2022/06/10 12:05:18;;;;;;;3.85;3.50;;;27.10;52.20;;;;;;5025032;28;20037;-80
2022/06/10 12:08:07;;;;;;;3.78;3.40;;;27.10;52.70;;;;;;5021991;28;20030;-80
2022/06/10 12:10:47;;;;;;;4.13;3.60;;;27.10;52.30;;;;;;5023632;28;20091;-80
2022/06/10 12:13:14;;;;;;;4.68;3.60;;;27.10;54.00;;;;;;5023356;28;20176;-80
2022/06/10 12:15:48;;;;;;;4.03;3.63;;;27.10;53.10;;;;;;5021407;28;20057;-80
2022/06/10 12:18:16;;;;;;;3.80;3.50;;;27.10;52.80;;;;;;5023589;28;20091;-80
2022/06/10 12:20:49;;;;;;;3.75;3.47;;;27.10;53.10;;;;;;5024959;28;20033;-80
2022/06/10 12:23:26;;;;;;;4.25;3.70;;;27.10;53.00;;;;;;5021097;28;20040;-79
2022/06/10 12:25:58;;;;;;;3.70;3.40;;;27.10;52.30;;;;;;5021957;28;20507;-79
2022/06/10 12:28:40;;;;;;;5.10;3.50;;;27.10;53.50;;;;;;5021706;28;20505;-79
2022/06/10 12:31:37;;;;;;;3.58;3.25;;;27.10;53.20;;;;;;5020249;28;20641;-79
2022/06/10 12:34:16;;;;;;;4.15;3.78;;;27.10;53.00;;;;;;5007701;28;20045;-80
2022/06/10 12:36:47;;;;;;;4.45;3.42;;;27.10;52.10;;;;;;5018936;28;20513;-80
2022/06/10 12:39:30;;;;;;;5.05;3.63;;;27.10;53.30;;;;;;5007963;28;20034;-81
2022/06/10 12:42:10;;;;;;;4.63;3.80;;;27.10;52.60;;;;;;5023010;28;20037;-80
2022/06/10 12:44:41;;;;;;;3.65;2.95;;;27.10;52.80;;;;;;5019312;28;20035;-80
2022/06/10 12:47:11;;;;;;;4.13;3.72;;;27.10;52.10;;;;;;5023620;28;20065;-81
2022/06/10 12:49:43;;;;;;;3.97;3.58;;;27.10;52.90;;;;;;5013184;28;20534;-78
2022/06/10 12:52:37;;;;;;;5.75;3.65;;;27.00;53.70;;;;;;5061052;28;20045;-81
2022/06/10 12:55:28;;;;;;;3.80;3.47;;;27.00;52.90;;;;;;5044388;28;20049;-81
2022/06/10 12:57:55;;;;;;;5.75;3.38;;;27.00;52.40;;;;;;5055615;28;20087;-80
2022/06/10 13:00:22;;;;;;;3.95;3.60;;;27.00;52.50;;;;;;5007780;28;20030;-80
2022/06/10 13:02:49;;;;;;;4.75;3.40;;;26.90;53.00;;;;;;5021483;28;20116;-81
2022/06/10 13:05:27;;;;;;;5.07;3.60;;;26.90;52.70;;;;;;5022139;28;20049;-80
2022/06/10 13:07:55;;;;;;;3.38;3.08;;;26.90;52.10;;;;;;5019832;28;20045;-79
2022/06/10 13:10:33;;;;;;;3.78;3.30;;;26.90;52.50;;;;;;5052268;28;20033;-80
2022/06/10 13:13:12;;;;;;;3.72;3.13;;;26.90;52.00;;;;;;5018767;28;20040;-80
2022/06/10 13:15:39;;;;;;;3.80;3.38;;;26.90;52.90;;;;;;5035663;28;20484;-79
2022/06/10 13:18:17;;;;;;;3.58;3.28;;;26.80;51.50;;;;;;5020651;28;20121;-78
2022/06/10 13:20:46;;;;;;;3.58;3.28;;;26.90;50.70;;;;;;5021255;28;20029;-79
2022/06/10 13:23:26;;;;;;;4.28;3.80;;;26.80;52.10;;;;;;5020698;28;20033;-79
2022/06/10 13:26:04;;;;;;;7.13;3.55;;;26.80;52.00;;;;;;5019683;28;20049;-79
2022/06/10 13:28:37;;;;;;;3.83;3.53;;;26.80;51.90;;;;;;5008223;28;20130;-79
2022/06/10 13:31:20;;;;;;;5.32;3.70;;;26.70;51.70;;;;;;5018998;28;20037;-79
2022/06/10 13:34:04;;;;;;;5.43;3.67;;;26.70;52.00;;;;;;5052977;28;20062;-79